sensor_id;sensor_type;location;lat;lon;timestamp;temperature;humidity
9383;DHT22;4731;49.708;10.816;2023-09-18T00:00:05;18.00;99.90
9383;DHT22;4731;49.708;10.816;2023-09-18T00:02:34;18.00;99.90
9383;DHT22;4731;49.708;10.816;2023-09-18T00:05:01;18.00;99.90
9383;DHT22;4731;49.708;10.816;2023-09-18T00:07:28;18.00;99.90
9383;DHT22;4731;49.708;10.816;2023-09-18T00:09:55;17.90;99.90
9383;DHT22;4731;49.708;10.816;2023-09-18T00:12:22;17.80;99.90
9383;DHT22;4731;49.708;10.816;2023-09-18T00:14:50;17.80;99.90
9383;DHT22;4731;49.708;10.816;2023-09-18T00:17:17;18.80;99.90
9383;DHT22;4731;49.708;10.816;2023-09-18T00:19:44;17.70;99.90
9383;DHT22;4731;49.708;10.816;2023-09-18T00:22:11;17.70;99.90
9383;DHT22;4731;49.708;10.816;2023-09-18T00:24:38;17.70;99.90
9383;DHT22;4731;49.708;10.816;2023-09-18T00:27:05;17.70;99.90
9383;DHT22;4731;49.708;10.816;2023-09-18T00:29:31;17.60;99.90
9383;DHT22;4731;49.708;10.816;2023-09-18T00:32:00;19.30;99.90
9383;DHT22;4731;49.708;10.816;2023-09-18T00:34:26;17.50;99.90
9383;DHT22;4731;49.708;10.816;2023-09-18T00:36:53;18.80;99.90
9383;DHT22;4731;49.708;10.816;2023-09-18T00:39:20;17.50;99.90
9383;DHT22;4731;49.708;10.816;2023-09-18T00:41:47;17.50;99.90
9383;DHT22;4731;49.708;10.816;2023-09-18T00:44:14;17.60;99.90
9383;DHT22;4731;49.708;10.816;2023-09-18T00:46:41;17.50;99.90
9383;DHT22;4731;49.708;10.816;2023-09-18T00:49:09;17.50;99.90
9383;DHT22;4731;49.708;10.816;2023-09-18T00:51:37;19.70;99.90
9383;DHT22;4731;49.708;10.816;2023-09-18T00:54:05;17.30;99.90
9383;DHT22;4731;49.708;10.816;2023-09-18T00:56:32;17.40;99.90
9383;DHT22;4731;49.708;10.816;2023-09-18T00:59:00;17.30;99.90
9383;DHT22;4731;49.708;10.816;2023-09-18T01:01:28;17.30;99.90
9383;DHT22;4731;49.708;10.816;2023-09-18T01:03:55;17.30;99.90
9383;DHT22;4731;49.708;10.816;2023-09-18T01:06:24;17.30;99.90
9383;DHT22;4731;49.708;10.816;2023-09-18T01:08:56;17.20;99.90
9383;DHT22;4731;49.708;10.816;2023-09-18T01:11:29;17.90;99.90
9383;DHT22;4731;49.708;10.816;2023-09-18T01:14:03;18.70;99.90
9383;DHT22;4731;49.708;10.816;2023-09-18T01:16:37;18.60;99.90
9383;DHT22;4731;49.708;10.816;2023-09-18T01:19:06;17.20;99.90
9383;DHT22;4731;49.708;10.816;2023-09-18T01:21:34;14.40;99.90
9383;DHT22;4731;49.708;10.816;2023-09-18T01:24:02;17.10;99.90
9383;DHT22;4731;49.708;10.816;2023-09-18T01:26:29;17.20;99.90
9383;DHT22;4731;49.708;10.816;2023-09-18T01:28:56;19.60;99.90
9383;DHT22;4731;49.708;10.816;2023-09-18T01:31:23;17.10;99.90
9383;DHT22;4731;49.708;10.816;2023-09-18T01:33:52;17.10;99.90
9383;DHT22;4731;49.708;10.816;2023-09-18T01:36:20;17.10;99.90
9383;DHT22;4731;49.708;10.816;2023-09-18T01:38:47;17.10;99.90
9383;DHT22;4731;49.708;10.816;2023-09-18T01:41:16;17.20;99.90
9383;DHT22;4731;49.708;10.816;2023-09-18T01:43:43;17.10;99.90
9383;DHT22;4731;49.708;10.816;2023-09-18T01:46:10;17.10;99.90
9383;DHT22;4731;49.708;10.816;2023-09-18T01:48:37;19.20;99.90
9383;DHT22;4731;49.708;10.816;2023-09-18T01:51:04;17.00;99.90
9383;DHT22;4731;49.708;10.816;2023-09-18T01:53:30;17.00;99.90
9383;DHT22;4731;49.708;10.816;2023-09-18T01:55:57;17.00;99.90
9383;DHT22;4731;49.708;10.816;2023-09-18T01:58:25;16.20;99.90
9383;DHT22;4731;49.708;10.816;2023-09-18T02:00:52;17.00;99.90
9383;DHT22;4731;49.708;10.816;2023-09-18T02:03:19;17.00;99.90
9383;DHT22;4731;49.708;10.816;2023-09-18T02:05:46;19.60;99.90
9383;DHT22;4731;49.708;10.816;2023-09-18T02:08:13;17.00;99.90
9383;DHT22;4731;49.708;10.816;2023-09-18T02:10:40;17.90;99.90
9383;DHT22;4731;49.708;10.816;2023-09-18T02:13:06;17.10;99.90
9383;DHT22;4731;49.708;10.816;2023-09-18T02:15:37;17.10;99.90
9383;DHT22;4731;49.708;10.816;2023-09-18T02:18:04;17.10;99.90
9383;DHT22;4731;49.708;10.816;2023-09-18T02:20:31;17.10;99.90
9383;DHT22;4731;49.708;10.816;2023-09-18T02:22:57;17.10;99.90
9383;DHT22;4731;49.708;10.816;2023-09-18T02:25:24;17.70;99.90
9383;DHT22;4731;49.708;10.816;2023-09-18T02:27:51;17.10;99.90
9383;DHT22;4731;49.708;10.816;2023-09-18T02:30:20;18.80;99.90
9383;DHT22;4731;49.708;10.816;2023-09-18T02:32:49;17.10;99.90
9383;DHT22;4731;49.708;10.816;2023-09-18T02:35:16;17.20;99.90
9383;DHT22;4731;49.708;10.816;2023-09-18T02:37:43;17.30;99.90
9383;DHT22;4731;49.708;10.816;2023-09-18T02:40:10;17.20;99.90
9383;DHT22;4731;49.708;10.816;2023-09-18T02:42:38;17.30;99.90
9383;DHT22;4731;49.708;10.816;2023-09-18T02:45:05;17.30;99.90
9383;DHT22;4731;49.708;10.816;2023-09-18T02:47:33;17.30;99.90
9383;DHT22;4731;49.708;10.816;2023-09-18T02:50:04;17.30;99.90
9383;DHT22;4731;49.708;10.816;2023-09-18T02:52:31;17.40;99.90
9383;DHT22;4731;49.708;10.816;2023-09-18T02:54:58;17.30;99.90
9383;DHT22;4731;49.708;10.816;2023-09-18T02:57:25;19.50;99.90
9383;DHT22;4731;49.708;10.816;2023-09-18T02:59:52;19.00;99.90
9383;DHT22;4731;49.708;10.816;2023-09-18T03:02:18;18.20;99.90
9383;DHT22;4731;49.708;10.816;2023-09-18T03:04:45;17.30;99.90
9383;DHT22;4731;49.708;10.816;2023-09-18T03:07:14;17.30;99.90
9383;DHT22;4731;49.708;10.816;2023-09-18T03:09:41;19.30;99.90
9383;DHT22;4731;49.708;10.816;2023-09-18T03:12:08;17.30;99.90
9383;DHT22;4731;49.708;10.816;2023-09-18T03:14:36;17.30;99.90
9383;DHT22;4731;49.708;10.816;2023-09-18T03:17:03;17.30;99.90
9383;DHT22;4731;49.708;10.816;2023-09-18T03:19:30;17.30;99.90
9383;DHT22;4731;49.708;10.816;2023-09-18T03:21:57;18.30;99.90
9383;DHT22;4731;49.708;10.816;2023-09-18T03:24:25;17.70;99.90
9383;DHT22;4731;49.708;10.816;2023-09-18T03:26:52;17.30;99.90
9383;DHT22;4731;49.708;10.816;2023-09-18T03:29:19;17.30;99.90
9383;DHT22;4731;49.708;10.816;2023-09-18T03:31:45;17.40;99.90
9383;DHT22;4731;49.708;10.816;2023-09-18T03:34:12;17.30;99.90
9383;DHT22;4731;49.708;10.816;2023-09-18T03:36:39;17.30;99.90
9383;DHT22;4731;49.708;10.816;2023-09-18T03:39:06;17.30;99.90
9383;DHT22;4731;49.708;10.816;2023-09-18T03:41:34;17.50;99.90
9383;DHT22;4731;49.708;10.816;2023-09-18T03:44:02;17.30;99.90
9383;DHT22;4731;49.708;10.816;2023-09-18T03:46:29;17.30;99.90
9383;DHT22;4731;49.708;10.816;2023-09-18T03:48:56;17.50;99.90
9383;DHT22;4731;49.708;10.816;2023-09-18T03:51:23;17.40;99.90
9383;DHT22;4731;49.708;10.816;2023-09-18T03:53:50;17.50;99.90
9383;DHT22;4731;49.708;10.816;2023-09-18T03:56:17;17.50;99.90
9383;DHT22;4731;49.708;10.816;2023-09-18T03:58:45;17.50;99.90
9383;DHT22;4731;49.708;10.816;2023-09-18T04:01:14;19.30;99.90
9383;DHT22;4731;49.708;10.816;2023-09-18T04:03:41;17.50;99.90
9383;DHT22;4731;49.708;10.816;2023-09-18T04:06:08;17.50;99.90
9383;DHT22;4731;49.708;10.816;2023-09-18T04:08:35;17.60;99.90
9383;DHT22;4731;49.708;10.816;2023-09-18T04:11:01;17.60;99.90
9383;DHT22;4731;49.708;10.816;2023-09-18T04:13:29;17.70;99.90
9383;DHT22;4731;49.708;10.816;2023-09-18T04:15:57;17.70;99.90
9383;DHT22;4731;49.708;10.816;2023-09-18T04:18:26;17.60;99.90
9383;DHT22;4731;49.708;10.816;2023-09-18T04:20:53;17.50;99.90
9383;DHT22;4731;49.708;10.816;2023-09-18T04:23:22;17.50;99.90
9383;DHT22;4731;49.708;10.816;2023-09-18T04:25:50;17.50;99.90
9383;DHT22;4731;49.708;10.816;2023-09-18T04:28:18;17.50;99.90
9383;DHT22;4731;49.708;10.816;2023-09-18T04:30:46;17.60;99.90
9383;DHT22;4731;49.708;10.816;2023-09-18T04:33:14;17.60;99.90
9383;DHT22;4731;49.708;10.816;2023-09-18T04:35:42;19.20;99.90
9383;DHT22;4731;49.708;10.816;2023-09-18T04:38:09;17.70;99.90
9383;DHT22;4731;49.708;10.816;2023-09-18T04:40:37;17.70;99.90
9383;DHT22;4731;49.708;10.816;2023-09-18T04:43:03;17.60;99.90
9383;DHT22;4731;49.708;10.816;2023-09-18T04:45:30;17.70;99.90
9383;DHT22;4731;49.708;10.816;2023-09-18T04:47:57;16.60;99.90
9383;DHT22;4731;49.708;10.816;2023-09-18T04:50:27;17.70;99.90
9383;DHT22;4731;49.708;10.816;2023-09-18T04:52:53;20.30;99.90
9383;DHT22;4731;49.708;10.816;2023-09-18T04:55:24;17.70;99.90
9383;DHT22;4731;49.708;10.816;2023-09-18T04:57:51;19.30;99.90
9383;DHT22;4731;49.708;10.816;2023-09-18T05:00:18;17.80;99.90
9383;DHT22;4731;49.708;10.816;2023-09-18T05:02:48;17.70;99.90
9383;DHT22;4731;49.708;10.816;2023-09-18T05:05:18;17.70;99.90
9383;DHT22;4731;49.708;10.816;2023-09-18T05:07:47;17.70;99.90
9383;DHT22;4731;49.708;10.816;2023-09-18T05:10:14;17.70;99.90
9383;DHT22;4731;49.708;10.816;2023-09-18T05:12:41;17.70;99.90
9383;DHT22;4731;49.708;10.816;2023-09-18T05:15:08;18.50;99.90
9383;DHT22;4731;49.708;10.816;2023-09-18T05:17:43;17.80;99.90
9383;DHT22;4731;49.708;10.816;2023-09-18T05:20:12;19.50;99.90
9383;DHT22;4731;49.708;10.816;2023-09-18T05:22:41;17.80;99.90
9383;DHT22;4731;49.708;10.816;2023-09-18T05:25:09;17.80;99.90
9383;DHT22;4731;49.708;10.816;2023-09-18T05:27:37;19.40;99.90
9383;DHT22;4731;49.708;10.816;2023-09-18T05:30:10;17.90;99.90
9383;DHT22;4731;49.708;10.816;2023-09-18T05:32:38;17.90;99.90
9383;DHT22;4731;49.708;10.816;2023-09-18T05:35:05;17.90;99.90
9383;DHT22;4731;49.708;10.816;2023-09-18T05:37:35;18.00;99.90
9383;DHT22;4731;49.708;10.816;2023-09-18T05:40:03;19.10;99.90
9383;DHT22;4731;49.708;10.816;2023-09-18T05:42:32;18.00;99.90
9383;DHT22;4731;49.708;10.816;2023-09-18T05:44:58;18.00;99.90
9383;DHT22;4731;49.708;10.816;2023-09-18T05:47:25;18.10;99.90
9383;DHT22;4731;49.708;10.816;2023-09-18T05:49:52;19.10;99.90
9383;DHT22;4731;49.708;10.816;2023-09-18T05:52:19;19.80;99.90
9383;DHT22;4731;49.708;10.816;2023-09-18T05:54:47;18.40;99.90
9383;DHT22;4731;49.708;10.816;2023-09-18T05:57:14;18.60;99.90
9383;DHT22;4731;49.708;10.816;2023-09-18T05:59:43;18.60;99.90
9383;DHT22;4731;49.708;10.816;2023-09-18T06:02:10;18.70;99.90
9383;DHT22;4731;49.708;10.816;2023-09-18T06:04:37;18.80;99.90
9383;DHT22;4731;49.708;10.816;2023-09-18T06:07:04;19.00;99.90
9383;DHT22;4731;49.708;10.816;2023-09-18T06:09:31;19.10;99.90
9383;DHT22;4731;49.708;10.816;2023-09-18T06:11:59;17.00;99.90
9383;DHT22;4731;49.708;10.816;2023-09-18T06:14:26;19.10;99.90
9383;DHT22;4731;49.708;10.816;2023-09-18T06:16:54;19.00;99.90
9383;DHT22;4731;49.708;10.816;2023-09-18T06:19:21;19.30;99.90
9383;DHT22;4731;49.708;10.816;2023-09-18T06:21:48;19.20;99.90
9383;DHT22;4731;49.708;10.816;2023-09-18T06:24:15;19.30;99.90
9383;DHT22;4731;49.708;10.816;2023-09-18T06:26:42;19.40;99.90
9383;DHT22;4731;49.708;10.816;2023-09-18T06:29:08;19.60;99.90
9383;DHT22;4731;49.708;10.816;2023-09-18T06:31:35;19.60;99.90
9383;DHT22;4731;49.708;10.816;2023-09-18T06:34:03;19.70;99.90
9383;DHT22;4731;49.708;10.816;2023-09-18T06:36:30;19.80;99.90
9383;DHT22;4731;49.708;10.816;2023-09-18T06:38:57;19.80;99.90
9383;DHT22;4731;49.708;10.816;2023-09-18T06:41:24;19.80;99.90
9383;DHT22;4731;49.708;10.816;2023-09-18T06:43:50;20.00;99.90
9383;DHT22;4731;49.708;10.816;2023-09-18T06:46:18;19.60;99.90
9383;DHT22;4731;49.708;10.816;2023-09-18T06:48:44;21.80;99.90
9383;DHT22;4731;49.708;10.816;2023-09-18T06:51:16;21.00;99.90
9383;DHT22;4731;49.708;10.816;2023-09-18T06:53:43;19.50;99.90
9383;DHT22;4731;49.708;10.816;2023-09-18T06:56:10;19.20;99.90
9383;DHT22;4731;49.708;10.816;2023-09-18T06:58:38;19.20;99.90
9383;DHT22;4731;49.708;10.816;2023-09-18T07:01:04;19.10;99.90
9383;DHT22;4731;49.708;10.816;2023-09-18T07:03:32;18.90;99.90
9383;DHT22;4731;49.708;10.816;2023-09-18T07:06:01;18.90;99.90
9383;DHT22;4731;49.708;10.816;2023-09-18T07:08:29;18.90;99.90
9383;DHT22;4731;49.708;10.816;2023-09-18T07:10:56;18.80;99.90
9383;DHT22;4731;49.708;10.816;2023-09-18T07:13:23;18.70;99.90
9383;DHT22;4731;49.708;10.816;2023-09-18T07:15:50;19.00;99.90
9383;DHT22;4731;49.708;10.816;2023-09-18T07:18:16;21.50;99.90
9383;DHT22;4731;49.708;10.816;2023-09-18T07:20:43;19.10;99.90
9383;DHT22;4731;49.708;10.816;2023-09-18T07:23:10;21.70;99.90
9383;DHT22;4731;49.708;10.816;2023-09-18T07:25:38;19.10;99.90
9383;DHT22;4731;49.708;10.816;2023-09-18T07:28:06;19.20;99.90
9383;DHT22;4731;49.708;10.816;2023-09-18T07:30:34;19.40;99.90
9383;DHT22;4731;49.708;10.816;2023-09-18T07:33:03;20.50;99.90
9383;DHT22;4731;49.708;10.816;2023-09-18T07:35:30;20.10;99.90
9383;DHT22;4731;49.708;10.816;2023-09-18T07:37:57;20.40;99.90
9383;DHT22;4731;49.708;10.816;2023-09-18T07:40:24;20.80;99.90
9383;DHT22;4731;49.708;10.816;2023-09-18T07:42:52;20.90;99.90
9383;DHT22;4731;49.708;10.816;2023-09-18T07:45:19;20.90;99.90
9383;DHT22;4731;49.708;10.816;2023-09-18T07:47:46;21.00;99.90
9383;DHT22;4731;49.708;10.816;2023-09-18T07:50:13;21.70;99.90
9383;DHT22;4731;49.708;10.816;2023-09-18T07:52:39;23.20;99.90
9383;DHT22;4731;49.708;10.816;2023-09-18T07:55:07;21.30;99.90
9383;DHT22;4731;49.708;10.816;2023-09-18T07:57:35;21.20;99.90
9383;DHT22;4731;49.708;10.816;2023-09-18T08:00:05;21.40;99.90
9383;DHT22;4731;49.708;10.816;2023-09-18T08:02:37;21.60;99.90
9383;DHT22;4731;49.708;10.816;2023-09-18T08:05:05;22.10;99.90
9383;DHT22;4731;49.708;10.816;2023-09-18T08:07:32;22.50;99.90
9383;DHT22;4731;49.708;10.816;2023-09-18T08:10:00;24.30;99.90
9383;DHT22;4731;49.708;10.816;2023-09-18T08:12:27;22.40;99.90
9383;DHT22;4731;49.708;10.816;2023-09-18T08:14:54;22.40;99.90
9383;DHT22;4731;49.708;10.816;2023-09-18T08:17:24;22.70;99.90
9383;DHT22;4731;49.708;10.816;2023-09-18T08:19:51;22.90;99.90
9383;DHT22;4731;49.708;10.816;2023-09-18T08:22:18;25.70;99.90
9383;DHT22;4731;49.708;10.816;2023-09-18T08:24:46;24.70;99.90
9383;DHT22;4731;49.708;10.816;2023-09-18T08:27:14;26.00;99.90
9383;DHT22;4731;49.708;10.816;2023-09-18T08:29:42;28.50;99.90
9383;DHT22;4731;49.708;10.816;2023-09-18T08:32:08;30.60;99.90
9383;DHT22;4731;49.708;10.816;2023-09-18T08:34:37;31.80;99.90
9383;DHT22;4731;49.708;10.816;2023-09-18T08:37:04;32.10;99.90
9383;DHT22;4731;49.708;10.816;2023-09-18T08:39:30;33.70;99.90
9383;DHT22;4731;49.708;10.816;2023-09-18T08:41:59;35.50;99.90
9383;DHT22;4731;49.708;10.816;2023-09-18T08:44:29;34.60;99.90
9383;DHT22;4731;49.708;10.816;2023-09-18T08:46:56;33.50;99.90
9383;DHT22;4731;49.708;10.816;2023-09-18T08:49:24;32.70;99.90
9383;DHT22;4731;49.708;10.816;2023-09-18T08:51:54;32.20;99.90
9383;DHT22;4731;49.708;10.816;2023-09-18T08:54:21;31.50;99.90
9383;DHT22;4731;49.708;10.816;2023-09-18T08:56:49;32.40;99.90
9383;DHT22;4731;49.708;10.816;2023-09-18T08:59:16;34.00;99.90
9383;DHT22;4731;49.708;10.816;2023-09-18T09:01:43;35.90;99.90
9383;DHT22;4731;49.708;10.816;2023-09-18T09:04:10;37.60;99.90
9383;DHT22;4731;49.708;10.816;2023-09-18T09:06:37;37.70;99.90
9383;DHT22;4731;49.708;10.816;2023-09-18T09:09:05;36.30;99.90
9383;DHT22;4731;49.708;10.816;2023-09-18T09:11:33;34.40;99.90
9383;DHT22;4731;49.708;10.816;2023-09-18T09:14:10;33.00;99.90
9383;DHT22;4731;49.708;10.816;2023-09-18T09:16:46;32.30;99.90
9383;DHT22;4731;49.708;10.816;2023-09-18T09:19:13;31.40;99.90
9383;DHT22;4731;49.708;10.816;2023-09-18T09:21:40;31.50;99.90
9383;DHT22;4731;49.708;10.816;2023-09-18T09:24:10;31.70;99.90
9383;DHT22;4731;49.708;10.816;2023-09-18T09:26:40;31.70;99.90
9383;DHT22;4731;49.708;10.816;2023-09-18T09:29:15;31.90;99.90
9383;DHT22;4731;49.708;10.816;2023-09-18T09:31:44;32.40;99.90
9383;DHT22;4731;49.708;10.816;2023-09-18T09:34:11;33.50;99.90
9383;DHT22;4731;49.708;10.816;2023-09-18T09:36:51;34.20;99.90
9383;DHT22;4731;49.708;10.816;2023-09-18T09:39:20;34.80;99.90
9383;DHT22;4731;49.708;10.816;2023-09-18T09:41:51;35.70;99.90
9383;DHT22;4731;49.708;10.816;2023-09-18T09:44:18;34.90;99.90
9383;DHT22;4731;49.708;10.816;2023-09-18T09:46:47;32.20;99.90
9383;DHT22;4731;49.708;10.816;2023-09-18T09:49:14;31.90;99.90
9383;DHT22;4731;49.708;10.816;2023-09-18T09:51:42;31.80;99.90
9383;DHT22;4731;49.708;10.816;2023-09-18T09:54:09;31.20;99.90
9383;DHT22;4731;49.708;10.816;2023-09-18T09:56:44;30.40;99.90
9383;DHT22;4731;49.708;10.816;2023-09-18T09:59:13;31.60;99.90
9383;DHT22;4731;49.708;10.816;2023-09-18T10:01:40;32.30;99.90
9383;DHT22;4731;49.708;10.816;2023-09-18T10:04:11;32.30;99.90
9383;DHT22;4731;49.708;10.816;2023-09-18T10:06:41;32.70;99.90
9383;DHT22;4731;49.708;10.816;2023-09-18T10:09:10;33.50;99.90
9383;DHT22;4731;49.708;10.816;2023-09-18T10:11:43;34.80;99.90
9383;DHT22;4731;49.708;10.816;2023-09-18T10:14:14;34.80;99.90
9383;DHT22;4731;49.708;10.816;2023-09-18T10:16:49;34.20;99.90
9383;DHT22;4731;49.708;10.816;2023-09-18T10:19:24;33.30;99.90
9383;DHT22;4731;49.708;10.816;2023-09-18T10:22:04;31.80;99.90
9383;DHT22;4731;49.708;10.816;2023-09-18T10:24:37;30.60;99.90
9383;DHT22;4731;49.708;10.816;2023-09-18T10:27:08;29.80;99.90
9383;DHT22;4731;49.708;10.816;2023-09-18T10:29:37;29.80;99.90
9383;DHT22;4731;49.708;10.816;2023-09-18T10:32:06;29.70;99.90
9383;DHT22;4731;49.708;10.816;2023-09-18T10:34:34;29.00;99.90
9383;DHT22;4731;49.708;10.816;2023-09-18T10:37:03;28.20;99.90
9383;DHT22;4731;49.708;10.816;2023-09-18T10:39:34;27.40;99.90
9383;DHT22;4731;49.708;10.816;2023-09-18T10:42:04;27.10;99.90
9383;DHT22;4731;49.708;10.816;2023-09-18T10:44:34;26.80;99.90
9383;DHT22;4731;49.708;10.816;2023-09-18T10:47:03;25.90;99.90
9383;DHT22;4731;49.708;10.816;2023-09-18T10:49:31;25.90;99.90
9383;DHT22;4731;49.708;10.816;2023-09-18T10:52:02;25.80;99.90
9383;DHT22;4731;49.708;10.816;2023-09-18T10:54:30;25.70;99.90
9383;DHT22;4731;49.708;10.816;2023-09-18T10:57:01;25.60;99.90
9383;DHT22;4731;49.708;10.816;2023-09-18T10:59:29;25.50;99.90
9383;DHT22;4731;49.708;10.816;2023-09-18T11:02:02;27.30;99.90
9383;DHT22;4731;49.708;10.816;2023-09-18T11:04:31;25.40;99.90
9383;DHT22;4731;49.708;10.816;2023-09-18T11:07:02;25.20;99.90
9383;DHT22;4731;49.708;10.816;2023-09-18T11:09:31;25.30;99.90
9383;DHT22;4731;49.708;10.816;2023-09-18T11:12:03;25.10;99.90
9383;DHT22;4731;49.708;10.816;2023-09-18T11:14:44;25.00;99.90
9383;DHT22;4731;49.708;10.816;2023-09-18T11:17:32;24.70;99.90
9383;DHT22;4731;49.708;10.816;2023-09-18T11:20:04;24.40;99.90
9383;DHT22;4731;49.708;10.816;2023-09-18T11:22:35;24.00;99.90
9383;DHT22;4731;49.708;10.816;2023-09-18T11:25:30;23.90;99.90
9383;DHT22;4731;49.708;10.816;2023-09-18T11:28:00;23.70;99.90
9383;DHT22;4731;49.708;10.816;2023-09-18T11:30:27;23.60;99.90
9383;DHT22;4731;49.708;10.816;2023-09-18T11:32:56;23.80;99.90
9383;DHT22;4731;49.708;10.816;2023-09-18T11:35:24;23.60;99.90
9383;DHT22;4731;49.708;10.816;2023-09-18T11:38:03;26.00;99.90
9383;DHT22;4731;49.708;10.816;2023-09-18T11:40:33;23.30;99.90
9383;DHT22;4731;49.708;10.816;2023-09-18T11:43:23;23.20;99.90
9383;DHT22;4731;49.708;10.816;2023-09-18T11:45:52;23.10;99.90
9383;DHT22;4731;49.708;10.816;2023-09-18T11:48:21;22.90;99.90
9383;DHT22;4731;49.708;10.816;2023-09-18T11:50:51;22.60;99.90
9383;DHT22;4731;49.708;10.816;2023-09-18T11:53:21;22.50;99.90
9383;DHT22;4731;49.708;10.816;2023-09-18T11:55:49;21.90;99.90
9383;DHT22;4731;49.708;10.816;2023-09-18T11:58:16;23.70;99.90
9383;DHT22;4731;49.708;10.816;2023-09-18T12:00:48;21.50;99.90
9383;DHT22;4731;49.708;10.816;2023-09-18T12:03:16;20.90;99.90
9383;DHT22;4731;49.708;10.816;2023-09-18T12:05:57;20.90;99.90
9383;DHT22;4731;49.708;10.816;2023-09-18T12:08:25;20.50;99.90
9383;DHT22;4731;49.708;10.816;2023-09-18T12:10:53;20.50;99.90
9383;DHT22;4731;49.708;10.816;2023-09-18T12:13:20;20.40;99.90
9383;DHT22;4731;49.708;10.816;2023-09-18T12:15:47;22.80;99.90
9383;DHT22;4731;49.708;10.816;2023-09-18T12:18:15;21.00;99.90
9383;DHT22;4731;49.708;10.816;2023-09-18T12:20:46;20.60;99.90
9383;DHT22;4731;49.708;10.816;2023-09-18T12:23:15;20.60;99.90
9383;DHT22;4731;49.708;10.816;2023-09-18T12:25:45;21.60;99.90
9383;DHT22;4731;49.708;10.816;2023-09-18T12:28:13;20.60;99.90
9383;DHT22;4731;49.708;10.816;2023-09-18T12:30:41;20.60;99.90
9383;DHT22;4731;49.708;10.816;2023-09-18T12:33:08;20.50;99.90
9383;DHT22;4731;49.708;10.816;2023-09-18T12:35:36;20.40;99.90
9383;DHT22;4731;49.708;10.816;2023-09-18T12:38:15;20.30;99.90
9383;DHT22;4731;49.708;10.816;2023-09-18T12:40:43;20.30;99.90
9383;DHT22;4731;49.708;10.816;2023-09-18T12:43:12;20.30;99.90
9383;DHT22;4731;49.708;10.816;2023-09-18T12:45:40;20.90;99.90
9383;DHT22;4731;49.708;10.816;2023-09-18T12:48:08;20.40;99.90
9383;DHT22;4731;49.708;10.816;2023-09-18T12:50:35;20.30;99.90
9383;DHT22;4731;49.708;10.816;2023-09-18T12:53:09;20.30;99.90
9383;DHT22;4731;49.708;10.816;2023-09-18T12:55:38;20.40;99.90
9383;DHT22;4731;49.708;10.816;2023-09-18T12:58:05;19.80;99.90
9383;DHT22;4731;49.708;10.816;2023-09-18T13:00:34;19.80;99.90
9383;DHT22;4731;49.708;10.816;2023-09-18T13:03:03;19.90;99.90
9383;DHT22;4731;49.708;10.816;2023-09-18T13:05:30;19.70;99.90
9383;DHT22;4731;49.708;10.816;2023-09-18T13:08:05;19.70;99.90
9383;DHT22;4731;49.708;10.816;2023-09-18T13:10:47;19.80;99.90
9383;DHT22;4731;49.708;10.816;2023-09-18T13:13:19;19.40;99.90
9383;DHT22;4731;49.708;10.816;2023-09-18T13:15:46;19.30;99.90
9383;DHT22;4731;49.708;10.816;2023-09-18T13:18:14;19.20;99.90
9383;DHT22;4731;49.708;10.816;2023-09-18T13:20:43;19.30;99.90
9383;DHT22;4731;49.708;10.816;2023-09-18T13:25:39;19.30;99.90
9383;DHT22;4731;49.708;10.816;2023-09-18T13:28:11;19.20;99.90
9383;DHT22;4731;49.708;10.816;2023-09-18T13:30:39;20.60;99.90
9383;DHT22;4731;49.708;10.816;2023-09-18T13:33:07;19.10;99.90
9383;DHT22;4731;49.708;10.816;2023-09-18T13:35:35;19.80;99.90
9383;DHT22;4731;49.708;10.816;2023-09-18T13:38:03;19.10;99.90
9383;DHT22;4731;49.708;10.816;2023-09-18T13:40:32;19.10;99.90
9383;DHT22;4731;49.708;10.816;2023-09-18T13:43:01;19.00;99.90
9383;DHT22;4731;49.708;10.816;2023-09-18T13:45:30;19.00;99.90
9383;DHT22;4731;49.708;10.816;2023-09-18T13:47:57;19.00;99.90
9383;DHT22;4731;49.708;10.816;2023-09-18T13:50:24;18.90;99.90
9383;DHT22;4731;49.708;10.816;2023-09-18T13:52:51;19.10;99.90
9383;DHT22;4731;49.708;10.816;2023-09-18T13:55:19;18.90;99.90
9383;DHT22;4731;49.708;10.816;2023-09-18T13:57:46;18.80;99.90
9383;DHT22;4731;49.708;10.816;2023-09-18T14:00:15;18.70;99.90
9383;DHT22;4731;49.708;10.816;2023-09-18T14:02:43;18.40;99.90
9383;DHT22;4731;49.708;10.816;2023-09-18T14:05:10;18.20;99.90
9383;DHT22;4731;49.708;10.816;2023-09-18T14:07:39;18.50;99.90
9383;DHT22;4731;49.708;10.816;2023-09-18T14:10:07;18.20;99.90
9383;DHT22;4731;49.708;10.816;2023-09-18T14:12:36;18.30;99.90
9383;DHT22;4731;49.708;10.816;2023-09-18T14:15:04;20.20;99.90
9383;DHT22;4731;49.708;10.816;2023-09-18T14:17:32;18.60;99.90
9383;DHT22;4731;49.708;10.816;2023-09-18T14:20:00;18.40;99.90
9383;DHT22;4731;49.708;10.816;2023-09-18T14:22:27;18.70;99.90
9383;DHT22;4731;49.708;10.816;2023-09-18T14:24:55;18.80;99.90
9383;DHT22;4731;49.708;10.816;2023-09-18T14:27:24;18.60;99.90
9383;DHT22;4731;49.708;10.816;2023-09-18T14:29:51;18.50;99.90
9383;DHT22;4731;49.708;10.816;2023-09-18T14:32:18;18.60;99.90
9383;DHT22;4731;49.708;10.816;2023-09-18T14:34:45;18.50;99.90
9383;DHT22;4731;49.708;10.816;2023-09-18T14:37:13;18.60;99.90
9383;DHT22;4731;49.708;10.816;2023-09-18T14:39:40;18.60;99.90
9383;DHT22;4731;49.708;10.816;2023-09-18T14:42:08;18.60;99.90
9383;DHT22;4731;49.708;10.816;2023-09-18T14:44:35;18.60;99.90
9383;DHT22;4731;49.708;10.816;2023-09-18T14:47:05;18.50;99.90
9383;DHT22;4731;49.708;10.816;2023-09-18T14:49:32;18.50;99.90
9383;DHT22;4731;49.708;10.816;2023-09-18T14:51:59;18.60;99.90
9383;DHT22;4731;49.708;10.816;2023-09-18T14:54:27;18.70;99.90
9383;DHT22;4731;49.708;10.816;2023-09-18T14:56:54;19.90;99.90
9383;DHT22;4731;49.708;10.816;2023-09-18T14:59:21;18.70;99.90
9383;DHT22;4731;49.708;10.816;2023-09-18T15:01:48;18.50;99.90
9383;DHT22;4731;49.708;10.816;2023-09-18T15:04:15;18.60;99.90
9383;DHT22;4731;49.708;10.816;2023-09-18T15:06:42;18.60;99.90
9383;DHT22;4731;49.708;10.816;2023-09-18T15:09:10;18.90;99.90
9383;DHT22;4731;49.708;10.816;2023-09-18T15:11:38;18.90;99.90
9383;DHT22;4731;49.708;10.816;2023-09-18T15:14:06;18.80;99.90
9383;DHT22;4731;49.708;10.816;2023-09-18T15:16:35;20.90;99.90
9383;DHT22;4731;49.708;10.816;2023-09-18T15:19:02;19.00;99.90
9383;DHT22;4731;49.708;10.816;2023-09-18T15:21:31;18.90;99.90
9383;DHT22;4731;49.708;10.816;2023-09-18T15:23:58;20.10;99.90
9383;DHT22;4731;49.708;10.816;2023-09-18T15:26:26;19.00;99.90
9383;DHT22;4731;49.708;10.816;2023-09-18T15:28:55;19.00;99.90
9383;DHT22;4731;49.708;10.816;2023-09-18T15:31:22;18.80;99.90
9383;DHT22;4731;49.708;10.816;2023-09-18T15:33:50;20.60;99.90
9383;DHT22;4731;49.708;10.816;2023-09-18T15:36:20;19.70;99.90
9383;DHT22;4731;49.708;10.816;2023-09-18T15:38:51;18.70;99.90
9383;DHT22;4731;49.708;10.816;2023-09-18T15:41:17;18.70;99.90
9383;DHT22;4731;49.708;10.816;2023-09-18T15:43:44;19.10;99.90
9383;DHT22;4731;49.708;10.816;2023-09-18T15:46:13;19.00;99.90
9383;DHT22;4731;49.708;10.816;2023-09-18T15:48:43;18.90;99.90
9383;DHT22;4731;49.708;10.816;2023-09-18T15:51:09;19.00;99.90
9383;DHT22;4731;49.708;10.816;2023-09-18T15:53:36;19.10;99.90